(°C)
11°
(°C)
-3°
-3°
-3°
-3°
SSO
SSO
SO
SO
SSO
S
SSW
(km/h)
7-11
7-11
6-11
6-11
6-11
6-12
7-16
(mm)
0
0
0
0
0
0
0
(%)
1
1
0
0
0
0
0

Sonnenhöhe

/ -30.6°
sun-icon
UV 13
05:47
20:15
Zunehmender Halbmond (29°)
07:36
23:16

METAR für Walden (K33V)

Zeit Bedingungen Temperatur/
Taupunkt
Wind Sichtweite Wetter Wolken Druck Änderung Roh
VFR 4.1°C / -2.2°C 160º 4kt >10km - Broken Clouds 11000ft - K33V 140655Z AUTO 16004KT 10SM BKN110 04/M02 A3027 RMK AO2 T00411022
VFR 4.1°C / -2.8°C 140º 4kt >10km - Broken Clouds 11000ft - K33V 140635Z AUTO 14004KT 10SM BKN110 04/M03 A3027 RMK AO2 T00411028
VFR 4.1°C / -3.2°C 150º 5kt >10km - Overcast 11000ft - K33V 140615Z AUTO 15005KT 10SM OVC110 04/M03 A3027 RMK AO2 T00411032
VFR 4.1°C / -2.9°C 140º 5kt >10km - Broken Clouds 11000ft - K33V 140555Z AUTO 14005KT 10SM BKN110 04/M03 A3027 RMK AO2 T00411029 10159 20041
VFR 5.5°C / -3.8°C 130º 4kt >10km - Clear - K33V 140515Z AUTO 13004KT 10SM CLR 06/M04 A3027 RMK AO2 T00551038
VFR 5.5°C / -4.2°C variable 0kt >10km - Clear - K33V 140455Z AUTO 00000KT 10SM CLR 06/M04 A3027 RMK AO2 T00551042
VFR 6.2°C / -3.8°C 360º 6kt >10km - Clear - K33V 140435Z AUTO 36006KT 10SM CLR 06/M04 A3027 RMK AO2 T00621038
VFR 7.5°C / -3.1°C 340º 4kt >10km - Scattered Clouds 11000ft - K33V 140415Z AUTO 34004KT 10SM SCT110 08/M03 A3027 RMK AO2 T00751031
VFR 8.4°C / -3.3°C 350º 7kt >10km - Broken Clouds 11000ft - K33V 140355Z AUTO 35007KT 10SM BKN110 08/M03 A3027 RMK AO2 T00841033 401731046
VFR 8.7°C / -3.8°C 320º 8kt >10km - Broken Clouds 10000ft - K33V 140335Z AUTO 32008KT 10SM BKN100 09/M04 A3027 RMK AO2 T00871038
VFR 9.7°C / -5.4°C 330º 8kt >10km - Overcast 10000ft - K33V 140315Z AUTO 33008KT 10SM OVC100 10/M05 A3027 RMK AO2 T00971054
VFR 9.7°C / -5.8°C 340º 6kt >10km - Broken Clouds 11000ft - K33V 140255Z AUTO 34006KT 10SM BKN110 10/M06 A3026 RMK AO2 T00971058
VFR 9.7°C / -6.2°C 340º 3kt >10km - Scattered Clouds 11000ft - K33V 140235Z AUTO 34003KT 10SM SCT110 10/M06 A3025 RMK AO2 T00971062
VFR 11.1°C / -5.8°C 300º 8kt >10km - Clear - K33V 140215Z AUTO 30008KT 10SM CLR 11/M06 A3025 RMK AO2 T01111058
VFR 12.8°C / -6.1°C 290º 7kt >10km - Scattered Clouds 12000ft - K33V 140155Z AUTO 29007KT 10SM SCT120 13/M06 A3024 RMK AO2 T01281061
VFR 14°C / -6.6°C 280º 9kt >10km - Scattered Clouds 12000ft - K33V 140135Z AUTO 28009KT 10SM SCT120 14/M07 A3025 RMK AO2 T01401066
VFR 14°C / -7.4°C 280º 12kt Gust 15kt >10km - Clear - K33V 140115Z AUTO 28012G15KT 10SM CLR 14/M07 A3023 RMK AO2 T01401074
VFR 14.2°C / -7.1°C 270º 10kt Gust 14kt >10km - Clear - K33V 140055Z AUTO 27010G14KT 10SM CLR 14/M07 A3023 RMK AO2 T01421071
VFR 15.3°C / -7.1°C 260º 12kt Gust 21kt >10km - Clear - K33V 140035Z AUTO 26012G21KT 10SM CLR 15/M07 A3023 RMK AO2 T01531071
VFR 15.6°C / -6.7°C 300º 10kt >10km - Clear - K33V 140015Z AUTO 30010KT 10SM CLR 16/M07 A3023 RMK AO2 T01561067
VFR 15.3°C / -6.9°C 320º 6kt >10km - Clear - K33V 132355Z AUTO 32006KT 10SM CLR 15/M07 A3023 RMK AO2 T01531069 10173 20140
VFR 15.3°C / -5.7°C 260º 7kt >10km - Scattered Clouds 11000ft - K33V 132335Z AUTO 26007KT 10SM SCT110 15/M06 A3023 RMK AO2 T01531057
VFR 14.6°C / -5.9°C 270º variable 230º to 290º 18kt Gust 28kt >10km - Scattered Clouds 11000ft - K33V 132315Z AUTO 27018G28KT 230V290 10SM SCT110 15/M06 A3024 RMK AO2 T01461059
VFR 15.4°C / -6.6°C 240º 9kt Gust 26kt >10km - Scattered Clouds 10000ft - K33V 132255Z AUTO 24009G26KT 10SM SCT100 15/M07 A3025 RMK AO2 T01541066

VFR

4.1°C / -2.2°C

[Mehr]
Wind 160º 4kt
Sichtweite >10km
Wetter -
Wolken Broken Clouds 11000ft
Druck
Änderung -
Roh K33V 140655Z AUTO 16004KT 10SM BKN110 04/M02 A3027 RMK AO2 T00411022

VFR

4.1°C / -2.8°C

[Mehr]
Wind 140º 4kt
Sichtweite >10km
Wetter -
Wolken Broken Clouds 11000ft
Druck
Änderung -
Roh K33V 140635Z AUTO 14004KT 10SM BKN110 04/M03 A3027 RMK AO2 T00411028

VFR

4.1°C / -3.2°C

[Mehr]
Wind 150º 5kt
Sichtweite >10km
Wetter -
Wolken Overcast 11000ft
Druck
Änderung -
Roh K33V 140615Z AUTO 15005KT 10SM OVC110 04/M03 A3027 RMK AO2 T00411032

VFR

4.1°C / -2.9°C

[Mehr]
Wind 140º 5kt
Sichtweite >10km
Wetter -
Wolken Broken Clouds 11000ft
Druck
Änderung -
Roh K33V 140555Z AUTO 14005KT 10SM BKN110 04/M03 A3027 RMK AO2 T00411029 10159 20041

VFR

5.5°C / -3.8°C

[Mehr]
Wind 130º 4kt
Sichtweite >10km
Wetter -
Wolken Clear
Druck
Änderung -
Roh K33V 140515Z AUTO 13004KT 10SM CLR 06/M04 A3027 RMK AO2 T00551038

VFR

5.5°C / -4.2°C

[Mehr]
Wind variable 0kt
Sichtweite >10km
Wetter -
Wolken Clear
Druck
Änderung -
Roh K33V 140455Z AUTO 00000KT 10SM CLR 06/M04 A3027 RMK AO2 T00551042

VFR

6.2°C / -3.8°C

[Mehr]
Wind 360º 6kt
Sichtweite >10km
Wetter -
Wolken Clear
Druck
Änderung -
Roh K33V 140435Z AUTO 36006KT 10SM CLR 06/M04 A3027 RMK AO2 T00621038

VFR

7.5°C / -3.1°C

[Mehr]
Wind 340º 4kt
Sichtweite >10km
Wetter -
Wolken Scattered Clouds 11000ft
Druck
Änderung -
Roh K33V 140415Z AUTO 34004KT 10SM SCT110 08/M03 A3027 RMK AO2 T00751031

VFR

8.4°C / -3.3°C

[Mehr]
Wind 350º 7kt
Sichtweite >10km
Wetter -
Wolken Broken Clouds 11000ft
Druck
Änderung -
Roh K33V 140355Z AUTO 35007KT 10SM BKN110 08/M03 A3027 RMK AO2 T00841033 401731046

VFR

8.7°C / -3.8°C

[Mehr]
Wind 320º 8kt
Sichtweite >10km
Wetter -
Wolken Broken Clouds 10000ft
Druck
Änderung -
Roh K33V 140335Z AUTO 32008KT 10SM BKN100 09/M04 A3027 RMK AO2 T00871038

VFR

9.7°C / -5.4°C

[Mehr]
Wind 330º 8kt
Sichtweite >10km
Wetter -
Wolken Overcast 10000ft
Druck
Änderung -
Roh K33V 140315Z AUTO 33008KT 10SM OVC100 10/M05 A3027 RMK AO2 T00971054

VFR

9.7°C / -5.8°C

[Mehr]
Wind 340º 6kt
Sichtweite >10km
Wetter -
Wolken Broken Clouds 11000ft
Druck
Änderung -
Roh K33V 140255Z AUTO 34006KT 10SM BKN110 10/M06 A3026 RMK AO2 T00971058

VFR

9.7°C / -6.2°C

[Mehr]
Wind 340º 3kt
Sichtweite >10km
Wetter -
Wolken Scattered Clouds 11000ft
Druck
Änderung -
Roh K33V 140235Z AUTO 34003KT 10SM SCT110 10/M06 A3025 RMK AO2 T00971062

VFR

11.1°C / -5.8°C

[Mehr]
Wind 300º 8kt
Sichtweite >10km
Wetter -
Wolken Clear
Druck
Änderung -
Roh K33V 140215Z AUTO 30008KT 10SM CLR 11/M06 A3025 RMK AO2 T01111058

VFR

12.8°C / -6.1°C

[Mehr]
Wind 290º 7kt
Sichtweite >10km
Wetter -
Wolken Scattered Clouds 12000ft
Druck
Änderung -
Roh K33V 140155Z AUTO 29007KT 10SM SCT120 13/M06 A3024 RMK AO2 T01281061

VFR

14°C / -6.6°C

[Mehr]
Wind 280º 9kt
Sichtweite >10km
Wetter -
Wolken Scattered Clouds 12000ft
Druck
Änderung -
Roh K33V 140135Z AUTO 28009KT 10SM SCT120 14/M07 A3025 RMK AO2 T01401066

VFR

14°C / -7.4°C

[Mehr]
Wind 280º 12kt Gust 15kt
Sichtweite >10km
Wetter -
Wolken Clear
Druck
Änderung -
Roh K33V 140115Z AUTO 28012G15KT 10SM CLR 14/M07 A3023 RMK AO2 T01401074

VFR

14.2°C / -7.1°C

[Mehr]
Wind 270º 10kt Gust 14kt
Sichtweite >10km
Wetter -
Wolken Clear
Druck
Änderung -
Roh K33V 140055Z AUTO 27010G14KT 10SM CLR 14/M07 A3023 RMK AO2 T01421071

VFR

15.3°C / -7.1°C

[Mehr]
Wind 260º 12kt Gust 21kt
Sichtweite >10km
Wetter -
Wolken Clear
Druck
Änderung -
Roh K33V 140035Z AUTO 26012G21KT 10SM CLR 15/M07 A3023 RMK AO2 T01531071

VFR

15.6°C / -6.7°C

[Mehr]
Wind 300º 10kt
Sichtweite >10km
Wetter -
Wolken Clear
Druck
Änderung -
Roh K33V 140015Z AUTO 30010KT 10SM CLR 16/M07 A3023 RMK AO2 T01561067

VFR

15.3°C / -6.9°C

[Mehr]
Wind 320º 6kt
Sichtweite >10km
Wetter -
Wolken Clear
Druck
Änderung -
Roh K33V 132355Z AUTO 32006KT 10SM CLR 15/M07 A3023 RMK AO2 T01531069 10173 20140

VFR

15.3°C / -5.7°C

[Mehr]
Wind 260º 7kt
Sichtweite >10km
Wetter -
Wolken Scattered Clouds 11000ft
Druck
Änderung -
Roh K33V 132335Z AUTO 26007KT 10SM SCT110 15/M06 A3023 RMK AO2 T01531057

VFR

14.6°C / -5.9°C

[Mehr]
Wind 270º variable 230º to 290º 18kt Gust 28kt
Sichtweite >10km
Wetter -
Wolken Scattered Clouds 11000ft
Druck
Änderung -
Roh K33V 132315Z AUTO 27018G28KT 230V290 10SM SCT110 15/M06 A3024 RMK AO2 T01461059

VFR

15.4°C / -6.6°C

[Mehr]
Wind 240º 9kt Gust 26kt
Sichtweite >10km
Wetter -
Wolken Scattered Clouds 10000ft
Druck
Änderung -
Roh K33V 132255Z AUTO 24009G26KT 10SM SCT100 15/M07 A3025 RMK AO2 T01541066

Aktuelle Satellitenbilder für Walden, USA

Die Standortmarkierung ist platziert auf Walden. [Mehr]

Das Echtzeit-Satellitenbild kombiniert sichtbares Licht während des Tages mit Infrarotstrahlung während der Nacht. Nachts ist das Bild nicht dunkel, da Infrarotstrahlung Temperaturunterschiede erkennen kann. Leider sind niedrige Wolken und Nebel nur schwer von den Bodentemperaturen zu unterscheiden und können daher nachts fast unsichtbar sein. Meteosat-Satellitenbilder für Europa werden alle 5 Minuten in Echtzeit aktualisiert. Die Bilder GOES-16 / GOES-17 (Nord- und Südamerika) und Himawari (Asien) werden alle 10 Minuten aktualisiert.

Radar- und Niederschlags-Nowcast für Walden

Die Ortsmarkierung zeigt auf Walden. Diese Animation zeigt das Niederschlagsradar der letzten Stunde, sowie eine 1h Vorhersage. Nieselregen und leichter Schneefall können für das Radar unsichtbar sein. Die Niederschlagsintensität ist farbcodiert von Hellblau bis Lila.